Terminal Aerodrome Forecast
Issued by NWS Jackson, MS

Home | Current Version | Previous Version | Text Only | Print | Product List | Glossary On
Versions: 1 2 3 4 5 6 7 8 9 10 11 12 13 14 15 16 17 18
000
FTUS44 KJAN 232337
TAFGLH
TAF
KGLH 232337Z 2400/2424 23010KT P6SM SCT050
     FM240100 36015G25KT P6SM TSRA BKN035CB
     FM240300 24005KT P6SM SCT050 OVC120
     FM240900 23003KT 5SM BR BKN025
     FM241300 35009KT P6SM VCTS BKN035CB
     FM241700 01010KT P6SM OVC050=

USA.gov is the U.S. government's official web portal to all federal, state and local government web resources and services.